ADDS METAR Data INFO
IDs: Format: Raw Decoded Include TAF

Data at: 0243 UTC 17 Jan 2018

KABY 170153Z AUTO 10SM CLR 08/03 A3034 RMK AO2 SLP276 T00780033
KABY 170053Z 00000KT 10SM CLR 08/03 A3034 RMK AO2 SLP275 T00830033
KABY 162353Z 00000KT 10SM CLR 11/03 A3033 RMK AO2 SLP272 T01060033 10161 20106 58007
KABY 162253Z 17003KT 10SM CLR 13/03 A3034 RMK AO2 SLP275 T01280028
KABY 162153Z 20006KT 10SM CLR 15/01 A3035 RMK AO2 SLP277 T01500006
KABY 162053Z 19004KT 10SM CLR 16/01 A3035 RMK AO2 SLP279 T01560006 56020
KABY 161953Z 22004KT 10SM SCT050 15/M01 A3036 RMK AO2 SLP282 T01501006
KABY 161853Z 22005KT 10SM FEW050 16/M01 A3039 RMK AO2 SLP290 T01611011
KABY 161753Z VRB05KT 10SM CLR 14/M01 A3041 RMK AO2 SLP299 T01391006 10144 21022 58024
KABY 161653Z 16007KT 10SM CLR 12/M01 A3044 RMK AO2 SLP308 T01221011
KABY 161553Z 18004KT 10SM CLR 10/M01 A3048 RMK AO2 SLP322 T01001011
KABY 161453Z 17005KT 10SM CLR 06/00 A3048 RMK AO2 SLP324 T00610000 51005
KABY 161353Z 00000KT 8SM CLR 02/00 A3048 RMK AO2 SLP324 T00170000
KABY 161253Z 00000KT 7SM CLR M02/M03 A3049 RMK AO2 SLP326 T10171033
KABY 161153Z AUTO 00000KT 8SM CLR M02/M03 A3047 RMK AO2 SLP319 T10171033 10011 21017 53007
KABY 161053Z AUTO 32003KT 8SM CLR M02/M03 A3046 RMK AO2 SLP314 T10171028
KABY 160953Z AUTO 00000KT 8SM CLR M01/M02 A3044 RMK AO2 SLP309 T10061022
KABY 160853Z AUTO 00000KT 10SM CLR M01/M02 A3045 RMK AO2 SLP311 T10061022 53005
KABY 160753Z AUTO 00000KT 9SM CLR 01/M02 A3044 RMK AO2 SLP309 T00061017
KABY 160653Z AUTO 34003KT 9SM CLR 00/M02 A3043 RMK AO2 SLP306 T00001017
KABY 160553Z AUTO 00000KT 10SM CLR 01/M01 A3043 RMK AO2 SLP306 T00111011 10061 20011 58010
KABY 160453Z AUTO 00000KT 10SM CLR 02/M01 A3044 RMK AO2 SLP310 T00171006 401331022
KABY 160353Z AUTO 00000KT 10SM CLR 02/M01 A3046 RMK AO2 SLP314 T00221006
KABY 160253Z AUTO 00000KT 10SM CLR 03/M01 A3046 RMK AO2 SLP317 T00281006 53012
KABY 160153Z AUTO 31003KT 10SM CLR 03/M01 A3045 RMK AO2 SLP314 T00331006
KABY 160053Z 00000KT 10SM CLR 05/00 A3043 RMK AO2 SLP307 T00500000
KABY 152353Z 34003KT 10SM CLR 06/01 A3043 RMK AO2 SLP306 T00610006 10133 20061 53005
KABY 152253Z 01003KT 10SM CLR 10/M02 A3042 RMK AO2 SLP302 T01001017
KABY 152153Z 01003KT 10SM CLR 12/M03 A3042 RMK AO2 SLP301 T01221028
KABY 152053Z VRB06KT 10SM CLR 13/M03 A3041 RMK AO2 SLP300 T01331033 56015
KABY 151953Z VRB03KT 10SM CLR 12/M04 A3041 RMK AO2 SLP300 T01221039
KABY 151853Z VRB06KT 10SM CLR 12/M04 A3043 RMK AO2 SLP304 T01171039
KABY 151753Z 00000KT 10SM CLR 10/M04 A3046 RMK AO2 SLP315 T01001039 10100 21022 58023
KABY 151653Z 01004KT 10SM CLR 08/M04 A3050 RMK AO2 SLP330 T00831039
KABY 151553Z 02005KT 10SM CLR 07/M03 A3054 RMK AO2 SLP343 T00721033
KABY 151453Z 06006KT 10SM CLR 04/M02 A3053 RMK AO2 SLP339 T00391022 51013